createdAt,value
2019-03-26T00:00:59.633Z,3.90
2019-03-26T00:03:26.926Z,3.85
2019-03-26T00:05:54.264Z,4.45
2019-03-26T00:08:21.660Z,3.55
2019-03-26T00:10:49.058Z,4.40
2019-03-26T00:13:16.418Z,4.15
2019-03-26T00:15:43.671Z,4.20
2019-03-26T00:18:11.019Z,4.28
2019-03-26T00:20:38.326Z,4.10
2019-03-26T00:23:05.681Z,4.47
2019-03-26T00:25:33.014Z,3.87
2019-03-26T00:28:00.403Z,3.77
2019-03-26T00:30:27.742Z,3.45
2019-03-26T00:32:55.056Z,4.30
2019-03-26T00:35:22.396Z,3.62
2019-03-26T00:37:49.747Z,4.75
2019-03-26T00:40:17.740Z,4.78
2019-03-26T00:42:48.279Z,4.43
2019-03-26T00:45:15.628Z,4.80
2019-03-26T00:47:42.875Z,4.43
2019-03-26T00:50:10.216Z,4.40
2019-03-26T00:52:39.244Z,4.65
2019-03-26T00:55:06.781Z,3.90
2019-03-26T00:57:34.031Z,4.30
2019-03-26T01:00:01.805Z,4.70
2019-03-26T01:02:29.058Z,4.53
2019-03-26T01:04:56.454Z,4.62
2019-03-26T01:07:23.819Z,4.58
2019-03-26T01:09:51.132Z,4.12
2019-03-26T01:12:18.498Z,4.83
2019-03-26T01:14:45.814Z,4.90
2019-03-26T01:17:13.073Z,5.20
2019-03-26T01:19:40.357Z,4.47
2019-03-26T01:22:07.627Z,4.40
2019-03-26T01:24:34.915Z,4.75
2019-03-26T01:27:02.258Z,4.17
2019-03-26T01:29:30.481Z,4.87
2019-03-26T01:31:57.855Z,5.05
2019-03-26T01:34:25.290Z,4.33
2019-03-26T01:36:52.597Z,4.92
2019-03-26T01:39:19.863Z,4.17
2019-03-26T01:41:47.121Z,4.40
2019-03-26T01:44:14.325Z,4.75
2019-03-26T01:46:41.540Z,4.50
2019-03-26T01:49:09.518Z,4.50
2019-03-26T01:51:36.990Z,4.30
2019-03-26T01:54:04.371Z,4.43
2019-03-26T01:56:31.599Z,4.47
2019-03-26T01:58:58.966Z,4.50
2019-03-26T02:01:26.288Z,4.42
2019-03-26T02:03:53.645Z,4.75
2019-03-26T02:06:20.877Z,4.15
2019-03-26T02:08:48.325Z,4.80
2019-03-26T02:11:15.711Z,5.03
2019-03-26T02:13:43.082Z,4.75
2019-03-26T02:16:10.351Z,4.35
2019-03-26T02:18:37.756Z,4.62
2019-03-26T02:21:05.130Z,4.90
2019-03-26T02:23:32.902Z,4.67
2019-03-26T02:26:00.154Z,4.65
2019-03-26T02:28:27.829Z,4.05
2019-03-26T02:30:55.172Z,4.50
2019-03-26T02:33:22.426Z,4.75
2019-03-26T02:35:49.678Z,4.80
2019-03-26T02:38:17.026Z,4.28
2019-03-26T02:40:44.328Z,4.85
2019-03-26T02:43:12.902Z,4.28
2019-03-26T02:45:40.423Z,4.12
2019-03-26T02:48:07.688Z,4.00
2019-03-26T02:50:35.620Z,4.10
2019-03-26T02:53:02.941Z,4.12
2019-03-26T02:55:30.195Z,4.42
2019-03-26T02:57:57.456Z,4.12
2019-03-26T03:00:24.904Z,4.33
2019-03-26T03:02:52.394Z,4.33
2019-03-26T03:05:34.402Z,4.03
2019-03-26T03:07:48.854Z,3.95
2019-03-26T03:10:16.210Z,3.75
2019-03-26T03:12:43.708Z,4.75
2019-03-26T03:15:11.119Z,4.25
2019-03-26T03:17:38.412Z,4.28
2019-03-26T03:20:05.895Z,4.45
2019-03-26T03:22:33.411Z,4.15
2019-03-26T03:25:00.725Z,4.17
2019-03-26T03:27:28.767Z,4.30
2019-03-26T03:29:56.178Z,4.30
2019-03-26T03:32:24.003Z,3.67
2019-03-26T03:34:51.367Z,4.20
2019-03-26T03:37:18.647Z,4.20
2019-03-26T03:39:45.872Z,4.15
2019-03-26T03:42:13.088Z,3.87
2019-03-26T03:44:40.640Z,3.80
2019-03-26T03:47:09.636Z,4.10
2019-03-26T03:49:37.006Z,4.35
2019-03-26T03:52:04.273Z,3.67
2019-03-26T03:54:32.003Z,3.70
2019-03-26T03:56:59.429Z,3.90
2019-03-26T03:59:27.438Z,3.50
2019-03-26T04:01:54.717Z,4.00
2019-03-26T04:04:22.107Z,3.63
2019-03-26T04:06:49.455Z,3.75
2019-03-26T04:09:16.704Z,3.17
2019-03-26T04:11:44.139Z,4.28
2019-03-26T04:14:11.441Z,4.00
2019-03-26T04:16:38.728Z,3.85
2019-03-26T04:19:05.953Z,3.85
2019-03-26T04:21:33.322Z,3.50
2019-03-26T04:24:00.673Z,3.60
2019-03-26T04:26:28.034Z,3.50
2019-03-26T04:28:55.355Z,3.55
2019-03-26T04:31:23.822Z,3.58
2019-03-26T04:33:51.074Z,3.90
2019-03-26T04:36:25.509Z,3.50
2019-03-26T04:38:47.424Z,3.72
2019-03-26T04:41:14.727Z,4.28
2019-03-26T04:43:42.037Z,3.37
2019-03-26T04:46:09.348Z,3.53
2019-03-26T04:48:36.637Z,3.98
2019-03-26T04:51:03.858Z,3.50
2019-03-26T04:53:34.050Z,3.50
2019-03-26T04:56:00.188Z,4.17
2019-03-26T04:58:27.470Z,4.30
2019-03-26T05:00:54.738Z,3.20
2019-03-26T05:03:21.997Z,3.98
2019-03-26T05:05:49.335Z,4.17
2019-03-26T05:08:16.642Z,4.10
2019-03-26T05:10:44.066Z,4.03
2019-03-26T05:13:11.436Z,3.67
2019-03-26T05:15:38.735Z,3.75
2019-03-26T05:18:06.109Z,3.40
2019-03-26T05:20:33.334Z,4.12
2019-03-26T05:23:00.568Z,4.20
2019-03-26T05:25:27.955Z,3.83
2019-03-26T05:27:55.357Z,4.25
2019-03-26T05:30:25.035Z,3.98
2019-03-26T05:32:52.294Z,3.77
2019-03-26T05:35:19.533Z,3.62
2019-03-26T05:37:46.797Z,5.03
2019-03-26T05:40:14.083Z,4.70
2019-03-26T05:42:41.446Z,5.17
2019-03-26T05:45:08.709Z,4.42
2019-03-26T05:47:35.980Z,4.57
2019-03-26T05:50:04.502Z,4.70
2019-03-26T05:52:31.715Z,4.30
2019-03-26T05:54:59.010Z,5.65
2019-03-26T05:57:26.225Z,4.85
2019-03-26T05:59:53.533Z,4.80
2019-03-26T06:02:20.931Z,5.78
2019-03-26T06:04:48.236Z,5.25
2019-03-26T06:07:15.483Z,5.00
2019-03-26T06:09:42.764Z,5.05
2019-03-26T06:12:09.999Z,4.70
2019-03-26T06:14:37.318Z,5.55
2019-03-26T06:17:04.566Z,5.60
2019-03-26T06:19:31.846Z,5.33
2019-03-26T06:21:59.246Z,5.20
2019-03-26T06:24:27.307Z,4.60
2019-03-26T06:26:54.527Z,5.10
2019-03-26T06:29:21.767Z,5.33
2019-03-26T06:31:49.116Z,5.40
2019-03-26T06:34:16.472Z,5.60
2019-03-26T06:36:43.787Z,5.17
2019-03-26T06:39:11.173Z,4.90
2019-03-26T06:41:38.462Z,4.67
2019-03-26T06:44:05.988Z,5.08
2019-03-26T06:46:33.257Z,4.53
2019-03-26T06:49:00.513Z,4.70
2019-03-26T06:51:28.321Z,4.90
2019-03-26T06:53:55.576Z,4.80
2019-03-26T06:56:22.899Z,4.45
2019-03-26T06:58:50.368Z,4.40
2019-03-26T07:01:17.585Z,5.00
2019-03-26T07:03:44.851Z,5.40
2019-03-26T07:06:17.279Z,5.08
2019-03-26T07:08:44.632Z,4.87
2019-03-26T07:11:11.994Z,4.20
2019-03-26T07:13:39.360Z,4.67
2019-03-26T07:16:06.715Z,4.50
2019-03-26T07:18:33.907Z,4.60
2019-03-26T07:21:01.262Z,4.45
2019-03-26T07:23:29.558Z,3.55
2019-03-26T07:25:56.846Z,4.30
2019-03-26T07:28:24.159Z,4.65
2019-03-26T07:30:51.575Z,4.33
2019-03-26T07:33:18.980Z,4.30
2019-03-26T07:35:46.309Z,4.53
2019-03-26T07:38:13.513Z,4.50
2019-03-26T07:40:40.731Z,4.25
2019-03-26T07:43:08.130Z,3.90
2019-03-26T07:45:35.322Z,3.70
2019-03-26T07:48:02.549Z,3.42
2019-03-26T07:50:29.853Z,4.25
2019-03-26T07:52:57.112Z,4.30
2019-03-26T07:55:24.320Z,3.77
2019-03-26T07:57:51.693Z,4.15
2019-03-26T08:00:21.002Z,3.72
2019-03-26T08:02:48.188Z,4.67
2019-03-26T08:05:15.600Z,4.05
2019-03-26T08:07:42.976Z,4.03
2019-03-26T08:10:11.091Z,3.92
2019-03-26T08:12:39.954Z,3.83
2019-03-26T08:15:08.630Z,3.55
2019-03-26T08:17:35.999Z,3.63
2019-03-26T08:20:04.473Z,3.95
2019-03-26T08:22:31.875Z,3.70
2019-03-26T08:25:00.603Z,4.00
2019-03-26T08:27:27.942Z,3.43
2019-03-26T08:29:55.288Z,3.87
2019-03-26T08:32:22.591Z,3.85
2019-03-26T08:34:50.035Z,4.17
2019-03-26T08:37:17.358Z,4.05
2019-03-26T08:39:44.656Z,4.60
2019-03-26T08:42:11.961Z,3.45
2019-03-26T08:44:39.261Z,4.08
2019-03-26T08:47:07.924Z,3.47
2019-03-26T08:49:35.827Z,3.80
2019-03-26T08:52:03.153Z,4.10
2019-03-26T08:54:30.526Z,3.80
2019-03-26T08:56:57.867Z,3.60
2019-03-26T08:59:25.137Z,3.90
2019-03-26T09:01:52.567Z,3.90
2019-03-26T09:04:20.712Z,3.95
2019-03-26T09:06:47.933Z,3.77
2019-03-26T09:09:15.307Z,3.37
2019-03-26T09:11:44.535Z,3.80
2019-03-26T09:14:11.757Z,4.60
2019-03-26T09:16:40.736Z,5.05
2019-03-26T09:19:08.114Z,4.03
2019-03-26T09:21:35.594Z,4.20
2019-03-26T09:24:02.822Z,3.17
2019-03-26T09:26:30.166Z,3.57
2019-03-26T09:28:57.592Z,3.52
2019-03-26T09:31:27.017Z,3.77
2019-03-26T09:33:54.456Z,3.50
2019-03-26T09:36:21.734Z,3.20
2019-03-26T09:38:49.053Z,2.98
2019-03-26T09:41:16.274Z,3.02
2019-03-26T09:43:43.568Z,3.20
2019-03-26T09:46:10.832Z,3.20
2019-03-26T09:48:38.093Z,2.87
2019-03-26T09:51:06.747Z,3.35
2019-03-26T09:53:33.961Z,3.98
2019-03-26T09:56:01.370Z,3.42
2019-03-26T09:58:28.890Z,3.33
2019-03-26T10:00:56.244Z,3.60
2019-03-26T10:03:23.633Z,3.77
2019-03-26T10:05:50.875Z,3.22
2019-03-26T10:08:19.139Z,4.10
2019-03-26T10:10:47.645Z,3.80
2019-03-26T10:13:14.834Z,4.08
2019-03-26T10:15:42.275Z,3.75
2019-03-26T10:18:09.529Z,3.47
2019-03-26T10:20:36.834Z,3.73
2019-03-26T10:23:04.122Z,3.72
2019-03-26T10:25:31.508Z,3.85
2019-03-26T10:27:58.863Z,3.57
2019-03-26T10:30:32.930Z,3.90
2019-03-26T10:33:00.318Z,3.55
2019-03-26T10:35:28.238Z,3.30
2019-03-26T10:37:55.634Z,3.83
2019-03-26T10:40:30.737Z,3.77
2019-03-26T10:42:58.091Z,3.47
2019-03-26T10:45:27.306Z,3.80
2019-03-26T10:47:54.582Z,4.08
2019-03-26T10:50:21.883Z,3.97
2019-03-26T10:52:49.323Z,3.70
2019-03-26T10:55:16.527Z,3.80
2019-03-26T10:57:43.833Z,3.60
2019-03-26T11:00:11.144Z,3.85
2019-03-26T11:02:38.486Z,3.90
2019-03-26T11:05:06.020Z,3.60
2019-03-26T11:07:33.387Z,5.10
2019-03-26T11:10:00.698Z,3.80
2019-03-26T11:12:27.892Z,4.03
2019-03-26T11:14:55.318Z,4.65
2019-03-26T11:17:22.717Z,4.40
2019-03-26T11:19:50.093Z,4.30
2019-03-26T11:22:17.484Z,4.40
2019-03-26T11:24:44.974Z,4.00
2019-03-26T11:27:12.291Z,4.22
2019-03-26T11:29:39.503Z,3.85
2019-03-26T11:32:06.795Z,4.53
2019-03-26T11:34:34.080Z,4.10
2019-03-26T11:37:01.344Z,3.98
2019-03-26T11:39:32.868Z,4.05
2019-03-26T11:41:57.623Z,3.80
2019-03-26T11:44:24.948Z,4.72
2019-03-26T11:46:52.234Z,4.00
2019-03-26T11:49:19.584Z,4.00
2019-03-26T11:51:46.878Z,4.20
2019-03-26T11:54:14.560Z,4.37
2019-03-26T11:56:41.814Z,4.70
2019-03-26T11:59:09.206Z,4.25
2019-03-26T12:01:36.613Z,4.90
2019-03-26T12:04:03.879Z,5.30
2019-03-26T12:06:31.261Z,4.35
2019-03-26T12:08:58.604Z,4.70
2019-03-26T12:11:26.021Z,4.75
2019-03-26T12:13:53.327Z,4.30
2019-03-26T12:16:20.743Z,4.67
2019-03-26T12:18:48.088Z,4.78
2019-03-26T12:21:15.306Z,4.53
2019-03-26T12:23:42.479Z,4.35
2019-03-26T12:26:09.709Z,4.28
2019-03-26T12:28:37.095Z,5.45
2019-03-26T12:31:04.510Z,4.37
2019-03-26T12:33:31.776Z,4.58
2019-03-26T12:35:59.706Z,4.70
2019-03-26T12:38:27.075Z,4.42
2019-03-26T12:40:54.469Z,4.30
2019-03-26T12:43:21.812Z,4.20
2019-03-26T12:45:49.100Z,4.95
2019-03-26T12:48:16.396Z,4.53
2019-03-26T12:50:43.630Z,4.37
2019-03-26T12:53:12.766Z,5.30
2019-03-26T12:55:39.968Z,4.30
2019-03-26T12:58:07.419Z,4.45
2019-03-26T13:00:34.799Z,4.60
2019-03-26T13:03:02.153Z,4.83
2019-03-26T13:05:29.515Z,4.33
2019-03-26T13:07:56.770Z,4.53
2019-03-26T13:10:24.117Z,4.90
2019-03-26T13:12:53.280Z,4.83
2019-03-26T13:15:20.581Z,4.90
2019-03-26T13:17:48.048Z,4.90
2019-03-26T13:20:15.390Z,4.90
2019-03-26T13:22:42.639Z,4.97
2019-03-26T13:25:10.213Z,4.65
2019-03-26T13:27:37.461Z,4.95
2019-03-26T13:30:05.344Z,4.80
2019-03-26T13:32:32.796Z,4.75
2019-03-26T13:34:59.999Z,4.92
2019-03-26T13:37:27.222Z,4.47
2019-03-26T13:39:54.935Z,4.70
2019-03-26T13:42:22.292Z,4.30
2019-03-26T13:44:49.749Z,5.10
2019-03-26T13:47:17.124Z,5.17
2019-03-26T13:49:44.503Z,5.15
2019-03-26T13:52:11.786Z,4.70
2019-03-26T13:54:42.002Z,4.87
2019-03-26T13:57:10.838Z,5.55
2019-03-26T13:59:38.054Z,5.55
2019-03-26T14:02:05.505Z,5.30
2019-03-26T14:04:32.815Z,5.53
2019-03-26T14:07:00.194Z,5.17
2019-03-26T14:09:28.010Z,5.50
2019-03-26T14:11:57.733Z,4.87
2019-03-26T14:14:24.174Z,5.37
2019-03-26T14:16:51.430Z,5.45
2019-03-26T14:19:18.718Z,5.50
2019-03-26T14:21:46.390Z,5.35
2019-03-26T14:24:15.328Z,5.78
2019-03-26T14:26:42.536Z,5.37
2019-03-26T14:29:12.213Z,5.30
2019-03-26T14:31:41.211Z,5.90
2019-03-26T14:34:08.440Z,5.53
2019-03-26T14:36:35.656Z,5.85
2019-03-26T14:39:03.200Z,5.35
2019-03-26T14:41:30.784Z,5.37
2019-03-26T14:43:58.118Z,5.70
2019-03-26T14:46:25.845Z,5.62
2019-03-26T14:48:53.046Z,5.95
2019-03-26T14:51:22.865Z,5.70
2019-03-26T14:53:49.208Z,5.50
2019-03-26T14:56:16.475Z,6.17
2019-03-26T14:58:43.876Z,5.78
2019-03-26T15:01:11.210Z,5.65
2019-03-26T15:03:38.447Z,6.62
2019-03-26T15:06:05.884Z,6.60
2019-03-26T15:08:34.284Z,6.70
2019-03-26T15:11:07.933Z,6.30
2019-03-26T15:13:30.711Z,6.35
2019-03-26T15:15:58.096Z,6.45
2019-03-26T15:18:27.106Z,6.50
2019-03-26T15:20:54.389Z,6.80
2019-03-26T15:23:21.663Z,6.60
2019-03-26T15:25:49.102Z,7.17
2019-03-26T15:28:16.514Z,6.73
2019-03-26T15:30:43.827Z,6.85
2019-03-26T15:33:11.062Z,6.00
2019-03-26T15:35:38.501Z,6.67
2019-03-26T15:38:05.836Z,6.75
2019-03-26T15:40:33.134Z,6.50
2019-03-26T15:43:00.624Z,6.73
2019-03-26T15:45:28.600Z,7.37
2019-03-26T15:47:55.804Z,6.90
2019-03-26T15:50:36.754Z,6.80
2019-03-26T15:53:04.034Z,7.75
2019-03-26T15:55:31.511Z,7.10
2019-03-26T15:58:00.002Z,6.42
2019-03-26T16:00:29.192Z,6.73
2019-03-26T16:02:56.524Z,6.80
2019-03-26T16:05:23.915Z,6.25
2019-03-26T16:07:51.201Z,6.53
2019-03-26T16:10:18.519Z,6.85
2019-03-26T16:12:45.980Z,6.65
2019-03-26T16:15:13.373Z,7.28
2019-03-26T16:17:43.182Z,6.75
2019-03-26T16:20:10.502Z,7.00
2019-03-26T16:22:38.321Z,6.92
2019-03-26T16:25:06.381Z,7.62
2019-03-26T16:27:35.473Z,7.75
2019-03-26T16:30:03.643Z,7.42
2019-03-26T16:32:32.037Z,7.50
2019-03-26T16:34:59.456Z,6.67
2019-03-26T16:37:27.621Z,6.97
2019-03-26T16:39:54.916Z,7.40
2019-03-26T16:42:22.319Z,6.83
2019-03-26T16:44:49.704Z,6.87
2019-03-26T16:47:16.947Z,7.08
2019-03-26T16:49:44.517Z,6.80
2019-03-26T16:52:11.807Z,7.50
2019-03-26T16:54:39.738Z,6.70
2019-03-26T16:57:07.010Z,6.20
2019-03-26T16:59:34.408Z,6.95
2019-03-26T17:02:01.733Z,7.62
2019-03-26T17:04:29.154Z,8.33
2019-03-26T17:06:56.400Z,7.80
2019-03-26T17:09:23.784Z,7.08
2019-03-26T17:12:02.434Z,7.40
2019-03-26T17:14:20.042Z,7.87
2019-03-26T17:16:47.323Z,8.68
2019-03-26T17:19:14.656Z,7.33
2019-03-26T17:21:41.997Z,7.10
2019-03-26T17:24:10.106Z,7.33
2019-03-26T17:26:37.541Z,8.00
2019-03-26T17:29:04.939Z,8.38
2019-03-26T17:31:32.289Z,9.50
2019-03-26T17:33:59.494Z,9.30
2019-03-26T17:36:26.761Z,9.05
2019-03-26T17:38:55.786Z,9.43
2019-03-26T17:41:23.061Z,9.35
2019-03-26T17:43:50.312Z,9.47
2019-03-26T17:46:17.767Z,9.63
2019-03-26T17:48:44.996Z,9.75
2019-03-26T17:51:14.793Z,10.03
2019-03-26T17:53:42.049Z,9.90
2019-03-26T17:56:09.353Z,9.10
2019-03-26T17:58:36.977Z,9.90
2019-03-26T18:01:04.256Z,9.13
2019-03-26T18:03:31.585Z,10.63
2019-03-26T18:05:59.419Z,13.08
2019-03-26T18:08:26.707Z,11.00
2019-03-26T18:10:54.572Z,10.03
2019-03-26T18:13:21.897Z,9.85
2019-03-26T18:15:49.367Z,9.60
2019-03-26T18:18:16.645Z,10.03
2019-03-26T18:20:43.892Z,8.77
2019-03-26T18:23:12.279Z,8.93
2019-03-26T18:25:39.704Z,8.60
2019-03-26T18:28:07.054Z,8.95
2019-03-26T18:30:34.445Z,8.95
2019-03-26T18:33:01.668Z,8.18
2019-03-26T18:35:28.974Z,8.63
2019-03-26T18:37:59.156Z,8.75
2019-03-26T18:40:26.411Z,7.58
2019-03-26T18:42:53.651Z,8.23
2019-03-26T18:45:20.906Z,7.53
2019-03-26T18:47:48.334Z,7.97
2019-03-26T18:50:15.604Z,7.90
2019-03-26T18:52:43.319Z,7.50
2019-03-26T18:55:10.628Z,7.72
2019-03-26T18:57:37.920Z,7.28
2019-03-26T19:00:09.637Z,7.53
2019-03-26T19:02:42.794Z,7.60
2019-03-26T19:05:33.954Z,8.10
2019-03-26T19:08:01.329Z,7.28
2019-03-26T19:13:26.221Z,7.45
2019-03-26T19:15:55.761Z,7.70
2019-03-26T19:18:26.669Z,7.78
2019-03-26T19:21:02.071Z,7.25
2019-03-26T19:23:24.639Z,7.05
2019-03-26T19:25:53.030Z,6.80
2019-03-26T19:28:20.282Z,6.45
2019-03-26T19:30:49.173Z,6.83
2019-03-26T19:36:08.031Z,6.60
2019-03-26T19:38:35.267Z,6.37
2019-03-26T19:41:02.752Z,7.00
2019-03-26T19:43:31.588Z,6.67
2019-03-26T19:45:58.855Z,6.77
2019-03-26T19:48:26.104Z,6.62
2019-03-26T19:50:53.552Z,6.67
2019-03-26T19:53:22.583Z,6.45
2019-03-26T19:55:50.102Z,6.87
2019-03-26T19:58:18.481Z,6.25
2019-03-26T20:00:45.852Z,6.00
2019-03-26T20:03:13.804Z,6.20
2019-03-26T20:05:41.184Z,6.58
2019-03-26T20:08:08.515Z,6.17
2019-03-26T20:10:35.881Z,6.42
2019-03-26T20:13:03.240Z,7.40
2019-03-26T20:15:30.568Z,7.15
2019-03-26T20:17:57.818Z,6.80
2019-03-26T20:20:25.195Z,7.35
2019-03-26T20:22:52.530Z,6.60
2019-03-26T20:25:19.922Z,6.85
2019-03-26T20:27:47.943Z,6.10
2019-03-26T20:30:15.316Z,6.90
2019-03-26T20:32:42.639Z,6.30
2019-03-26T20:35:09.899Z,5.95
2019-03-26T20:37:37.282Z,6.50
2019-03-26T20:40:06.193Z,6.40
2019-03-26T20:42:33.598Z,5.95
2019-03-26T20:45:00.930Z,7.40
2019-03-26T20:47:28.125Z,6.50
2019-03-26T20:49:55.685Z,5.95
2019-03-26T20:52:22.940Z,6.07
2019-03-26T20:54:51.889Z,5.58
2019-03-26T20:57:19.222Z,5.87
2019-03-26T20:59:50.766Z,5.30
2019-03-26T21:02:18.237Z,5.83
2019-03-26T21:04:45.495Z,5.40
2019-03-26T21:07:12.876Z,5.97
2019-03-26T21:09:40.232Z,6.05
2019-03-26T21:12:08.570Z,5.97
2019-03-26T21:14:35.926Z,6.40
2019-03-26T21:17:03.147Z,5.97
2019-03-26T21:19:30.336Z,7.53
2019-03-26T21:21:58.957Z,7.65
2019-03-26T21:24:26.256Z,7.03
2019-03-26T21:26:53.503Z,7.40
2019-03-26T21:29:23.295Z,7.53
2019-03-26T21:31:59.866Z,7.70
2019-03-26T21:34:30.745Z,7.50
2019-03-26T21:36:57.186Z,7.10
2019-03-26T21:39:28.576Z,6.45
2019-03-26T21:41:57.598Z,7.20
2019-03-26T21:44:24.799Z,7.97
2019-03-26T21:46:54.782Z,6.50
2019-03-26T21:49:22.091Z,6.37
2019-03-26T21:51:49.368Z,7.67
2019-03-26T21:54:16.586Z,7.97
2019-03-26T21:56:44.007Z,7.70
2019-03-26T21:59:11.269Z,7.30
2019-03-26T22:01:38.497Z,8.68
2019-03-26T22:04:06.362Z,8.75
2019-03-26T22:06:33.754Z,8.35
2019-03-26T22:09:01.052Z,8.18
2019-03-26T22:11:28.423Z,8.10
2019-03-26T22:13:55.680Z,7.90
2019-03-26T22:16:22.956Z,7.83
2019-03-26T22:18:50.273Z,7.50
2019-03-26T22:21:17.683Z,8.63
2019-03-26T22:23:44.955Z,9.00
2019-03-26T22:26:12.192Z,7.40
2019-03-26T22:28:39.425Z,6.95
2019-03-26T22:31:06.717Z,6.45
2019-03-26T22:33:33.939Z,6.67
2019-03-26T22:36:01.277Z,6.67
2019-03-26T22:38:29.159Z,7.03
2019-03-26T22:40:56.507Z,7.47
2019-03-26T22:43:23.835Z,7.22
2019-03-26T22:45:51.069Z,6.95
2019-03-26T22:48:18.424Z,7.25
2019-03-26T22:50:45.638Z,6.58
2019-03-26T22:53:12.986Z,6.90
2019-03-26T22:55:40.441Z,6.47
2019-03-26T22:58:07.743Z,6.05
2019-03-26T23:00:35.770Z,5.62
2019-03-26T23:03:03.383Z,6.60
2019-03-26T23:05:30.580Z,6.47
2019-03-26T23:07:57.840Z,6.55
2019-03-26T23:10:25.222Z,6.60
2019-03-26T23:12:52.566Z,7.03
2019-03-26T23:15:21.508Z,7.30
2019-03-26T23:17:48.819Z,7.08
2019-03-26T23:20:16.035Z,6.87
2019-03-26T23:22:43.663Z,7.22
2019-03-26T23:25:12.618Z,7.08
2019-03-26T23:27:40.957Z,7.00
2019-03-26T23:30:08.585Z,7.58
2019-03-26T23:32:35.847Z,7.12
2019-03-26T23:35:03.127Z,6.90
2019-03-26T23:37:30.398Z,7.83
2019-03-26T23:39:57.716Z,7.97
2019-03-26T23:42:25.137Z,7.75
2019-03-26T23:44:58.253Z,7.00
2019-03-26T23:47:21.491Z,7.42
2019-03-26T23:49:48.810Z,6.83
2019-03-26T23:52:16.040Z,7.17
2019-03-26T23:54:43.251Z,6.67
2019-03-26T23:57:11.089Z,6.80
2019-03-26T23:59:38.417Z,6.67
